Time;durP1;ratioP1;P1;durP2;ratioP2;P2;SDS_P1;SDS_P2;PMS_P1;PMS_P2;Temp;Humidity;BMP_temperature;BMP_pressure;BME280_temperature;BME280_humidity;BME280_pressure;Samples;Min_cycle;Max_cycle;Signal;HPM_P1;HPM_P2
2021/09/03 00:01:14;;;;;;;15.20;7.50;;;12.00;99.90;;;;;;5121852;27;20189;-48
2021/09/03 00:03:42;;;;;;;10.20;6.87;;;12.00;99.90;;;;;;5122605;27;20212;-46
2021/09/03 00:06:09;;;;;;;15.70;7.93;;;12.00;99.90;;;;;;5123120;27;20185;-48
2021/09/03 00:08:36;;;;;;;11.50;7.50;;;11.90;99.90;;;;;;5124778;27;20803;-44
2021/09/03 00:11:04;;;;;;;11.23;8.57;;;11.90;99.90;;;;;;5128370;27;20193;-47
2021/09/03 00:13:30;;;;;;;13.57;8.30;;;11.90;99.90;;;;;;5108601;27;20211;-47
2021/09/03 00:15:57;;;;;;;11.83;7.93;;;11.90;99.90;;;;;;5127618;27;20649;-44
2021/09/03 00:18:24;;;;;;;14.00;7.43;;;11.90;99.90;;;;;;5124702;27;20188;-49
2021/09/03 00:20:52;;;;;;;13.83;8.63;;;11.90;99.90;;;;;;5127858;27;20184;-44
2021/09/03 00:23:18;;;;;;;11.87;7.33;;;11.90;99.90;;;;;;5125299;27;20227;-50
2021/09/03 00:25:45;;;;;;;11.20;8.00;;;11.90;99.90;;;;;;5127432;27;20181;-46
2021/09/03 00:28:12;;;;;;;10.93;8.20;;;12.00;99.90;;;;;;5120423;27;20246;-48
2021/09/03 00:30:39;;;;;;;11.27;7.97;;;11.90;99.90;;;;;;5117854;27;20993;-44
2021/09/03 00:33:05;;;;;;;14.33;8.43;;;11.90;99.90;;;;;;5121119;27;20228;-48
2021/09/03 00:35:32;;;;;;;14.10;8.00;;;11.90;99.90;;;;;;5124662;27;20219;-46
2021/09/03 00:38:00;;;;;;;13.17;8.57;;;11.80;99.90;;;;;;5127681;27;20188;-45
2021/09/03 00:40:27;;;;;;;12.93;8.20;;;11.80;99.90;;;;;;5123735;27;20196;-45
2021/09/03 00:42:53;;;;;;;13.70;7.57;;;11.80;99.90;;;;;;5127765;27;20228;-50
2021/09/03 00:45:20;;;;;;;13.30;9.07;;;11.70;99.90;;;;;;5108843;27;20204;-48
2021/09/03 00:47:47;;;;;;;10.30;7.53;;;11.70;99.90;;;;;;5126969;27;20196;-44
2021/09/03 00:50:13;;;;;;;15.77;8.10;;;11.70;99.90;;;;;;5125760;27;20193;-44
2021/09/03 00:52:40;;;;;;;11.23;7.13;;;11.60;99.90;;;;;;5124964;27;20204;-45
2021/09/03 00:55:09;;;;;;;13.00;7.93;;;11.60;99.90;;;;;;5127121;27;20216;-48
2021/09/03 00:57:38;;;;;;;11.23;7.20;;;11.50;99.90;;;;;;5125094;27;20896;-44
2021/09/03 01:00:06;;;;;;;15.33;9.20;;;11.50;99.90;;;;;;5111707;27;20674;-45
2021/09/03 01:02:33;;;;;;;13.23;8.67;;;11.50;99.90;;;;;;5123914;27;20189;-45
2021/09/03 01:04:59;;;;;;;14.37;7.07;;;11.50;99.90;;;;;;5127604;27;20677;-44
2021/09/03 01:07:26;;;;;;;13.83;8.93;;;11.40;99.90;;;;;;5123340;27;20177;-46
2021/09/03 01:09:53;;;;;;;10.53;8.27;;;11.40;99.90;;;;;;5126970;27;20193;-45
2021/09/03 01:12:21;;;;;;;16.60;8.33;;;11.40;99.90;;;;;;5124091;27;20193;-45
2021/09/03 01:14:47;;;;;;;14.90;8.70;;;11.40;99.90;;;;;;5113399;27;20211;-44
2021/09/03 01:17:14;;;;;;;13.47;8.47;;;11.40;99.90;;;;;;5124843;27;20185;-45
2021/09/03 01:19:41;;;;;;;15.43;7.57;;;11.40;99.90;;;;;;5125158;27;20185;-44
2021/09/03 01:22:09;;;;;;;11.40;7.97;;;11.40;99.90;;;;;;5126252;27;20203;-45
2021/09/03 01:24:35;;;;;;;17.03;8.87;;;11.30;99.90;;;;;;5124039;27;20208;-45
2021/09/03 01:27:02;;;;;;;10.50;7.60;;;11.40;99.90;;;;;;5122834;27;20656;-45
2021/09/03 01:29:30;;;;;;;17.80;8.47;;;11.40;99.90;;;;;;5134922;27;20926;-45
2021/09/03 01:31:56;;;;;;;17.23;8.50;;;11.40;99.90;;;;;;5115942;27;20212;-44
2021/09/03 01:34:23;;;;;;;15.57;8.93;;;11.40;99.90;;;;;;5122873;27;20208;-47
2021/09/03 01:36:49;;;;;;;11.53;9.00;;;11.40;99.90;;;;;;5126587;27;20196;-45
2021/09/03 01:39:17;;;;;;;11.90;8.33;;;11.40;99.90;;;;;;5124191;27;20196;-43
2021/09/03 01:41:44;;;;;;;14.77;8.37;;;11.40;99.90;;;;;;5126004;27;20650;-43
2021/09/03 01:44:11;;;;;;;15.57;8.73;;;11.40;99.90;;;;;;5125298;27;20224;-48
2021/09/03 01:46:38;;;;;;;11.30;7.70;;;11.40;99.90;;;;;;5108656;27;20212;-46
2021/09/03 01:49:05;;;;;;;11.20;7.30;;;11.40;99.90;;;;;;5126244;27;20189;-45
2021/09/03 01:51:32;;;;;;;12.97;8.00;;;11.40;99.90;;;;;;5122062;27;20380;-44
2021/09/03 01:53:59;;;;;;;13.20;8.03;;;11.30;99.90;;;;;;5126785;27;20216;-44
2021/09/03 01:56:26;;;;;;;15.97;8.57;;;11.30;99.90;;;;;;5116445;27;20215;-45
2021/09/03 01:58:53;;;;;;;15.77;7.60;;;11.30;99.90;;;;;;5134803;27;20197;-45
2021/09/03 02:01:20;;;;;;;13.57;7.60;;;11.30;99.90;;;;;;5128441;27;20191;-46
2021/09/03 02:03:46;;;;;;;14.17;7.77;;;11.30;99.90;;;;;;5123486;27;20229;-45
2021/09/03 02:06:13;;;;;;;16.33;8.30;;;11.30;99.90;;;;;;5124175;27;20180;-48
2021/09/03 02:08:39;;;;;;;16.17;9.00;;;11.40;99.90;;;;;;5124376;27;20862;-46
2021/09/03 02:11:06;;;;;;;17.07;8.30;;;11.40;99.90;;;;;;5126037;27;20184;-49
2021/09/03 02:13:34;;;;;;;10.83;7.67;;;11.40;99.90;;;;;;5122870;27;20200;-45
2021/09/03 02:16:01;;;;;;;13.87;8.63;;;11.40;99.90;;;;;;5126108;27;20219;-46
2021/09/03 02:18:27;;;;;;;14.63;8.20;;;11.40;99.90;;;;;;5108263;27;20776;-49
2021/09/03 02:20:54;;;;;;;12.80;7.63;;;11.40;99.90;;;;;;5125430;27;20197;-46
2021/09/03 02:23:20;;;;;;;14.40;8.53;;;11.50;99.90;;;;;;5122773;27;20216;-49
2021/09/03 02:25:47;;;;;;;16.40;8.60;;;11.50;99.90;;;;;;5125739;27;20181;-45
2021/09/03 02:28:15;;;;;;;12.30;8.00;;;11.60;99.90;;;;;;5128457;27;20191;-45
2021/09/03 02:30:44;;;;;;;12.13;8.20;;;11.60;99.90;;;;;;5126979;27;20927;-46
2021/09/03 02:33:10;;;;;;;15.57;8.97;;;11.70;99.90;;;;;;5107938;27;20228;-50
2021/09/03 02:35:37;;;;;;;14.03;8.43;;;11.70;99.90;;;;;;5122913;27;20212;-44
2021/09/03 02:38:04;;;;;;;16.50;8.97;;;11.80;99.90;;;;;;5125715;27;20189;-44
2021/09/03 02:40:31;;;;;;;24.33;9.70;;;11.90;99.90;;;;;;5121606;27;20189;-44
2021/09/03 02:42:58;;;;;;;12.07;8.30;;;11.90;99.90;;;;;;5125852;27;20571;-43
2021/09/03 02:45:24;;;;;;;16.30;8.90;;;12.00;99.90;;;;;;5121691;27;20181;-46
2021/09/03 02:47:52;;;;;;;16.67;8.40;;;12.00;99.90;;;;;;5109648;27;20207;-47
2021/09/03 02:50:19;;;;;;;16.47;9.37;;;12.10;99.90;;;;;;5121910;27;20197;-48
2021/09/03 02:52:46;;;;;;;15.00;8.73;;;12.10;99.90;;;;;;5124082;27;20213;-43
2021/09/03 02:55:13;;;;;;;13.40;9.03;;;12.20;99.90;;;;;;5123586;27;20209;-47
2021/09/03 02:57:40;;;;;;;22.53;9.37;;;12.20;99.90;;;;;;5123781;27;20180;-47
2021/09/03 03:00:09;;;;;;;12.97;8.77;;;12.30;99.90;;;;;;5128382;27;20207;-44
2021/09/03 03:02:36;;;;;;;13.50;9.30;;;12.30;99.90;;;;;;5124184;27;21286;-44
2021/09/03 03:05:05;;;;;;;17.70;9.03;;;12.30;99.90;;;;;;5125272;27;20195;-45
2021/09/03 03:07:32;;;;;;;15.57;9.27;;;12.40;99.90;;;;;;5121307;27;20177;-44
2021/09/03 03:09:58;;;;;;;14.17;8.63;;;12.40;99.90;;;;;;5125098;27;20675;-44
2021/09/03 03:12:25;;;;;;;18.30;9.90;;;12.50;99.90;;;;;;5121092;27;20197;-46
2021/09/03 03:14:52;;;;;;;13.37;9.10;;;12.50;99.90;;;;;;5125044;27;20224;-45
2021/09/03 03:17:18;;;;;;;18.00;9.67;;;12.50;99.90;;;;;;5121624;27;20188;-49
2021/09/03 03:19:45;;;;;;;17.77;9.63;;;12.60;99.90;;;;;;5108124;27;20201;-45
2021/09/03 03:22:13;;;;;;;18.87;9.73;;;12.60;99.90;;;;;;5122606;27;20204;-50
2021/09/03 03:24:40;;;;;;;16.30;10.03;;;12.60;99.90;;;;;;5122934;27;20197;-49
2021/09/03 03:27:07;;;;;;;20.47;10.20;;;12.70;99.90;;;;;;5120368;27;20211;-48
2021/09/03 03:29:33;;;;;;;18.63;9.80;;;12.70;99.90;;;;;;5133519;27;20778;-47
2021/09/03 03:32:00;;;;;;;18.73;9.57;;;12.70;99.90;;;;;;5145258;27;20196;-48
2021/09/03 03:34:27;;;;;;;18.03;10.53;;;12.80;99.90;;;;;;5113765;27;20208;-47
2021/09/03 03:36:53;;;;;;;19.27;9.80;;;12.80;99.90;;;;;;5124196;27;20204;-46
2021/09/03 03:39:21;;;;;;;31.83;11.73;;;12.80;99.90;;;;;;5121108;27;20197;-47
2021/09/03 03:41:48;;;;;;;16.83;10.33;;;12.90;99.90;;;;;;5123897;27;20204;-46
2021/09/03 03:44:15;;;;;;;19.63;10.93;;;12.90;99.90;;;;;;5122213;27;20689;-45
2021/09/03 03:46:41;;;;;;;22.80;11.00;;;12.90;99.90;;;;;;5122828;27;20181;-45
2021/09/03 03:49:08;;;;;;;18.63;10.43;;;12.90;99.90;;;;;;5119691;27;20276;-50
2021/09/03 03:51:34;;;;;;;19.40;11.73;;;12.90;99.90;;;;;;5109778;27;20242;-45
2021/09/03 03:54:01;;;;;;;16.67;10.63;;;12.90;99.90;;;;;;5124199;27;20242;-49
2021/09/03 03:56:29;;;;;;;18.03;10.37;;;13.00;99.90;;;;;;5114372;27;20220;-45
2021/09/03 03:58:56;;;;;;;20.97;11.23;;;13.00;99.90;;;;;;5133147;27;20200;-47
2021/09/03 04:01:22;;;;;;;18.43;10.97;;;13.00;99.90;;;;;;5141317;27;20679;-46
2021/09/03 04:03:49;;;;;;;20.73;10.93;;;13.10;99.90;;;;;;5144825;27;20204;-45
2021/09/03 04:06:15;;;;;;;22.90;12.10;;;13.10;99.90;;;;;;5110485;27;20692;-50
2021/09/03 04:08:42;;;;;;;21.17;11.90;;;13.10;99.90;;;;;;5122563;27;20196;-45
2021/09/03 04:11:08;;;;;;;20.77;11.37;;;13.20;99.90;;;;;;5123324;27;20207;-48
2021/09/03 04:13:36;;;;;;;18.53;10.43;;;13.20;99.90;;;;;;5121346;27;20212;-45
2021/09/03 04:16:03;;;;;;;18.83;10.97;;;13.20;99.90;;;;;;5124120;27;20212;-47
2021/09/03 04:18:30;;;;;;;18.03;11.30;;;13.20;99.90;;;;;;5120160;27;20285;-46
2021/09/03 04:20:56;;;;;;;22.03;11.20;;;13.30;99.90;;;;;;5110407;27;20215;-44
2021/09/03 04:23:23;;;;;;;20.90;11.10;;;13.30;99.90;;;;;;5119771;27;20224;-50
2021/09/03 04:25:50;;;;;;;23.57;12.67;;;13.30;99.90;;;;;;5123592;27;20195;-47
2021/09/03 04:28:16;;;;;;;18.93;10.47;;;13.30;99.90;;;;;;5123193;27;20654;-47
2021/09/03 04:30:44;;;;;;;22.07;11.00;;;13.30;99.90;;;;;;5139874;27;20183;-45
2021/09/03 04:33:11;;;;;;;19.23;11.20;;;13.40;99.90;;;;;;5114231;27;20213;-48
2021/09/03 04:35:37;;;;;;;23.07;11.40;;;13.40;99.90;;;;;;5100447;27;20224;-45
2021/09/03 04:38:04;;;;;;;22.17;11.30;;;13.40;99.90;;;;;;5117072;27;20204;-48
2021/09/03 04:40:31;;;;;;;17.83;10.67;;;13.40;99.90;;;;;;5120770;27;20181;-47
2021/09/03 04:42:57;;;;;;;22.33;11.83;;;13.50;99.90;;;;;;5124115;27;20212;-45
2021/09/03 04:45:24;;;;;;;19.87;11.47;;;13.50;99.90;;;;;;5120112;27;20177;-45
2021/09/03 04:47:54;;;;;;;19.53;11.20;;;13.50;99.90;;;;;;5123724;27;20197;-45
2021/09/03 04:50:21;;;;;;;20.07;10.57;;;13.50;99.90;;;;;;5115177;27;20193;-45
2021/09/03 04:52:47;;;;;;;19.70;10.63;;;13.50;99.90;;;;;;5095958;27;20228;-46
2021/09/03 04:55:14;;;;;;;19.13;11.80;;;13.50;99.90;;;;;;5124678;27;20255;-50
2021/09/03 04:57:42;;;;;;;18.90;11.87;;;13.60;99.90;;;;;;5127436;27;20217;-46
2021/09/03 05:00:10;;;;;;;23.93;11.17;;;13.60;99.90;;;;;;5129868;27;20203;-47
2021/09/03 05:02:38;;;;;;;21.50;11.47;;;13.60;99.90;;;;;;5146746;27;20184;-46
2021/09/03 05:05:07;;;;;;;19.53;11.50;;;13.60;99.90;;;;;;5147165;27;20191;-44
2021/09/03 05:07:34;;;;;;;23.73;12.17;;;13.60;99.90;;;;;;5114013;27;20211;-47
2021/09/03 05:10:01;;;;;;;24.20;10.50;;;13.70;99.90;;;;;;5117118;27;20200;-49
2021/09/03 05:12:27;;;;;;;23.17;11.90;;;13.70;99.90;;;;;;5119509;27;20193;-48
2021/09/03 05:14:54;;;;;;;21.50;11.43;;;13.70;99.90;;;;;;5127125;27;20658;-46
2021/09/03 05:17:22;;;;;;;18.17;10.90;;;13.70;99.90;;;;;;5123050;27;20212;-45
2021/09/03 05:19:48;;;;;;;20.67;11.27;;;13.80;99.90;;;;;;5127102;27;20700;-46
2021/09/03 05:22:17;;;;;;;20.20;11.53;;;13.80;99.90;;;;;;5110637;27;20211;-44
2021/09/03 05:24:43;;;;;;;20.17;11.50;;;13.80;99.90;;;;;;5120807;27;20252;-45
2021/09/03 05:27:10;;;;;;;20.67;11.17;;;13.80;99.90;;;;;;5121637;27;20199;-43
2021/09/03 05:29:36;;;;;;;20.83;10.73;;;13.80;99.90;;;;;;5137191;27;20191;-44
2021/09/03 05:32:04;;;;;;;18.93;11.50;;;13.90;99.90;;;;;;5140312;27;20197;-43
2021/09/03 05:34:30;;;;;;;20.73;11.20;;;13.90;99.90;;;;;;5124191;27;20224;-45
2021/09/03 05:36:57;;;;;;;26.30;12.03;;;13.90;99.90;;;;;;5126910;27;20216;-45
2021/09/03 05:39:25;;;;;;;22.73;12.53;;;13.90;99.90;;;;;;5104755;27;20201;-45
2021/09/03 05:41:51;;;;;;;26.13;12.33;;;14.00;99.90;;;;;;5113485;27;20189;-45
2021/09/03 05:44:18;;;;;;;22.50;11.83;;;14.00;99.90;;;;;;5117789;27;20224;-44
2021/09/03 05:46:45;;;;;;;21.40;11.53;;;14.00;99.90;;;;;;5118442;27;20181;-45
2021/09/03 05:49:11;;;;;;;18.17;11.23;;;14.10;99.90;;;;;;5114607;27;20666;-45
2021/09/03 05:51:38;;;;;;;21.10;11.40;;;14.10;99.90;;;;;;5117943;27;20481;-46
2021/09/03 05:54:08;;;;;;;21.90;11.37;;;14.10;99.90;;;;;;5105735;27;20216;-46
2021/09/03 05:56:37;;;;;;;24.53;11.90;;;14.20;99.90;;;;;;5115657;27;20220;-46
2021/09/03 05:59:04;;;;;;;25.63;12.53;;;14.20;99.90;;;;;;5115848;27;20205;-44
2021/09/03 06:01:31;;;;;;;20.97;10.50;;;14.30;99.90;;;;;;5112437;27;20182;-46
2021/09/03 06:03:58;;;;;;;19.70;11.47;;;14.30;99.90;;;;;;5123600;27;20220;-45
2021/09/03 06:06:24;;;;;;;19.17;10.70;;;14.30;99.90;;;;;;5120698;27;20184;-44
2021/09/03 06:08:52;;;;;;;22.97;11.50;;;14.30;99.90;;;;;;5112243;27;20200;-45
2021/09/03 06:11:21;;;;;;;19.43;11.43;;;14.40;99.90;;;;;;5117360;27;20276;-44
2021/09/03 06:13:49;;;;;;;26.40;11.17;;;14.40;99.90;;;;;;5118051;27;20785;-46
2021/09/03 06:16:15;;;;;;;20.73;11.03;;;14.50;99.90;;;;;;5113633;27;20216;-44
2021/09/03 06:18:42;;;;;;;20.90;11.07;;;14.50;99.90;;;;;;5113186;27;20193;-43
2021/09/03 06:21:09;;;;;;;26.57;11.40;;;14.60;99.90;;;;;;5113417;27;20208;-44
2021/09/03 06:23:35;;;;;;;21.20;11.30;;;14.60;99.90;;;;;;5093654;27;20220;-43
2021/09/03 06:26:02;;;;;;;21.20;10.63;;;14.60;99.90;;;;;;5116253;27;20528;-47
2021/09/03 06:28:28;;;;;;;24.87;11.23;;;14.70;99.90;;;;;;5094345;27;20197;-45
2021/09/03 06:30:56;;;;;;;21.57;11.67;;;14.70;99.90;;;;;;5097907;27;20205;-46
2021/09/03 06:33:23;;;;;;;17.23;11.30;;;14.70;99.90;;;;;;5102946;27;20777;-47
2021/09/03 06:35:50;;;;;;;23.83;11.83;;;14.80;99.90;;;;;;5112751;27;20213;-48
2021/09/03 06:38:16;;;;;;;20.30;11.27;;;14.80;99.90;;;;;;5087692;27;20208;-49
2021/09/03 06:40:43;;;;;;;21.33;11.50;;;14.80;99.90;;;;;;5101251;27;20212;-47
2021/09/03 06:43:10;;;;;;;19.23;10.67;;;14.80;99.90;;;;;;5110499;27;20240;-50
2021/09/03 06:45:36;;;;;;;19.37;10.93;;;14.90;99.90;;;;;;5095473;27;20197;-46
2021/09/03 06:48:05;;;;;;;19.07;10.57;;;14.90;99.90;;;;;;5123405;27;20574;-49
2021/09/03 06:50:32;;;;;;;22.10;10.30;;;14.90;99.90;;;;;;5111369;27;20201;-46
2021/09/03 06:52:58;;;;;;;17.73;9.93;;;14.90;99.90;;;;;;5121674;27;20211;-46
2021/09/03 06:55:25;;;;;;;20.33;10.53;;;14.90;99.90;;;;;;5090394;27;20196;-51
2021/09/03 06:57:52;;;;;;;20.23;10.47;;;15.00;99.90;;;;;;5100337;27;22936;-48
2021/09/03 07:00:18;;;;;;;20.73;10.73;;;15.00;99.90;;;;;;5104845;27;20205;-47
2021/09/03 07:02:45;;;;;;;19.00;10.30;;;15.10;99.90;;;;;;5094852;27;20228;-46
2021/09/03 07:05:13;;;;;;;17.63;9.90;;;15.10;99.90;;;;;;5101645;27;20215;-46
2021/09/03 07:07:40;;;;;;;21.53;10.40;;;15.10;99.90;;;;;;5104411;27;20203;-45
2021/09/03 07:10:07;;;;;;;19.37;10.57;;;15.10;99.90;;;;;;5098308;27;20207;-48
2021/09/03 07:12:34;;;;;;;22.17;10.07;;;15.10;99.90;;;;;;5115529;27;20193;-46
2021/09/03 07:15:00;;;;;;;15.77;10.50;;;15.20;99.90;;;;;;5115068;27;20204;-48
2021/09/03 07:17:27;;;;;;;16.60;9.57;;;15.20;99.90;;;;;;5114575;27;20222;-46
2021/09/03 07:19:54;;;;;;;15.53;10.13;;;15.20;99.90;;;;;;5117844;27;20192;-46
2021/09/03 07:22:22;;;;;;;15.73;10.13;;;15.20;99.90;;;;;;5106082;27;21211;-48
2021/09/03 07:24:48;;;;;;;15.67;10.00;;;15.30;99.90;;;;;;5104845;27;20189;-47
2021/09/03 07:27:15;;;;;;;17.67;10.13;;;15.30;99.90;;;;;;5087962;27;20207;-49
2021/09/03 07:29:42;;;;;;;16.13;9.83;;;15.40;99.90;;;;;;5102472;27;20207;-46
2021/09/03 07:32:08;;;;;;;14.43;9.63;;;15.40;99.90;;;;;;5111087;27;20229;-50
2021/09/03 07:34:35;;;;;;;15.83;9.87;;;15.40;99.90;;;;;;5106543;27;20216;-46
2021/09/03 07:37:02;;;;;;;14.43;10.33;;;15.40;99.90;;;;;;5110966;27;21140;-50
2021/09/03 07:39:30;;;;;;;11.43;9.57;;;15.50;99.90;;;;;;5101872;27;20184;-49
2021/09/03 07:41:57;;;;;;;13.23;10.23;;;15.50;99.90;;;;;;5093996;27;20197;-45
2021/09/03 07:44:24;;;;;;;15.10;9.57;;;15.50;99.90;;;;;;5100999;27;20253;-47
2021/09/03 07:46:51;;;;;;;13.60;9.90;;;15.60;99.90;;;;;;5114905;27;20193;-45
2021/09/03 07:49:17;;;;;;;15.53;9.60;;;15.60;99.90;;;;;;5105765;27;20310;-47
2021/09/03 07:51:44;;;;;;;18.30;10.23;;;15.70;99.90;;;;;;5103747;27;20201;-48
2021/09/03 07:54:10;;;;;;;15.43;9.33;;;15.80;99.90;;;;;;5108279;27;20224;-45
2021/09/03 07:56:38;;;;;;;15.30;9.97;;;15.90;99.90;;;;;;5111196;27;20204;-46
2021/09/03 07:59:05;;;;;;;15.17;10.13;;;16.00;99.90;;;;;;5103571;27;20270;-46
2021/09/03 08:01:32;;;;;;;15.13;10.60;;;16.00;99.90;;;;;;5110490;27;20208;-48
2021/09/03 08:03:58;;;;;;;17.10;10.83;;;16.00;99.90;;;;;;5112110;27;20219;-49
2021/09/03 08:06:25;;;;;;;17.07;10.83;;;16.10;99.90;;;;;;5115024;27;20659;-46
2021/09/03 08:08:51;;;;;;;16.97;11.23;;;16.10;99.90;;;;;;5110966;27;20189;-47
2021/09/03 08:11:18;;;;;;;18.47;11.90;;;16.20;99.90;;;;;;5107691;27;20716;-47
2021/09/03 08:13:46;;;;;;;16.77;10.97;;;16.20;99.90;;;;;;5104474;27;20213;-46
2021/09/03 08:16:13;;;;;;;18.37;10.97;;;16.20;99.90;;;;;;5117513;27;20192;-47
2021/09/03 08:18:40;;;;;;;15.57;10.67;;;16.20;99.90;;;;;;5109575;27;20201;-49
2021/09/03 08:21:06;;;;;;;16.40;11.03;;;16.20;99.90;;;;;;5108426;27;20193;-47
2021/09/03 08:23:35;;;;;;;19.37;11.70;;;16.20;99.90;;;;;;5118289;27;20204;-48
2021/09/03 08:26:01;;;;;;;18.23;11.07;;;16.20;99.90;;;;;;5103381;27;20208;-50
2021/09/03 08:28:28;;;;;;;12.50;10.17;;;16.20;99.90;;;;;;5101189;27;20208;-49
2021/09/03 08:30:56;;;;;;;20.30;10.47;;;16.30;99.90;;;;;;5123321;27;20208;-47
2021/09/03 08:33:22;;;;;;;16.60;9.23;;;16.30;99.90;;;;;;5122127;27;20228;-51
2021/09/03 08:35:49;;;;;;;17.10;9.37;;;16.30;99.90;;;;;;5111898;27;20208;-49
2021/09/03 08:38:16;;;;;;;18.67;8.83;;;16.30;99.90;;;;;;5112098;27;20217;-48
2021/09/03 08:40:42;;;;;;;12.23;8.13;;;16.40;99.90;;;;;;5113342;27;20191;-47
2021/09/03 08:43:10;;;;;;;12.33;8.10;;;16.50;99.90;;;;;;5129395;27;20212;-47
2021/09/03 08:45:38;;;;;;;16.93;8.17;;;16.60;99.90;;;;;;5113399;27;20204;-50
2021/09/03 08:48:06;;;;;;;17.23;7.70;;;16.70;99.90;;;;;;5118382;27;20201;-47
2021/09/03 08:50:33;;;;;;;16.70;7.10;;;16.80;99.90;;;;;;5125200;27;20223;-51
2021/09/03 08:53:00;;;;;;;11.83;7.03;;;16.80;99.90;;;;;;5147505;27;20227;-48
2021/09/03 08:55:26;;;;;;;13.80;8.17;;;16.80;99.90;;;;;;5135027;27;20192;-49
2021/09/03 08:57:53;;;;;;;11.57;6.47;;;16.90;99.90;;;;;;5130243;27;20242;-46
2021/09/03 09:00:26;;;;;;;11.50;6.40;;;16.90;99.90;;;;;;5119313;27;20874;-49
2021/09/03 09:03:04;;;;;;;12.70;7.27;;;17.00;99.90;;;;;;5125383;27;20212;-47
2021/09/03 09:05:53;;;;;;;10.57;6.70;;;17.00;99.90;;;;;;5110759;27;20200;-51
2021/09/03 09:08:22;;;;;;;15.30;7.27;;;17.00;99.90;;;;;;5114043;27;20674;-48
2021/09/03 09:10:52;;;;;;;10.50;6.67;;;17.00;99.90;;;;;;5120182;27;20196;-48
2021/09/03 09:13:21;;;;;;;11.43;6.93;;;17.10;99.90;;;;;;5121972;27;20212;-50
2021/09/03 09:16:10;;;;;;;14.57;7.20;;;17.20;99.90;;;;;;5099660;27;20212;-48
2021/09/03 09:18:47;;;;;;;12.90;6.17;;;17.30;99.90;;;;;;5125968;27;20217;-50
2021/09/03 09:21:19;;;;;;;8.10;6.40;;;17.30;99.90;;;;;;5106935;27;20288;-48
2021/09/03 09:23:49;;;;;;;9.33;6.30;;;17.40;99.90;;;;;;5120556;27;20720;-47
2021/09/03 09:26:17;;;;;;;13.20;6.60;;;17.30;99.90;;;;;;5122264;27;20202;-48
2021/09/03 09:28:44;;;;;;;12.23;6.80;;;17.40;99.90;;;;;;5132797;27;20839;-47
2021/09/03 09:31:11;;;;;;;11.13;7.27;;;17.40;99.90;;;;;;5109428;27;20216;-49
2021/09/03 09:33:45;;;;;;;9.57;6.10;;;17.50;99.90;;;;;;5114261;27;20213;-53
2021/09/03 09:36:15;;;;;;;12.30;5.53;;;17.40;99.90;;;;;;5107133;27;20228;-50
2021/09/03 09:38:45;;;;;;;9.23;6.47;;;17.60;99.90;;;;;;5109799;27;20230;-51
2021/09/03 09:41:14;;;;;;;13.37;6.90;;;17.50;99.90;;;;;;5112790;27;20566;-50
2021/09/03 09:43:43;;;;;;;9.27;5.87;;;17.50;99.90;;;;;;5109577;27;22390;-53
2021/09/03 09:46:22;;;;;;;9.10;6.07;;;17.60;99.90;;;;;;5112507;27;20201;-48
2021/09/03 09:49:02;;;;;;;14.33;7.47;;;17.60;99.90;;;;;;5097208;27;20190;-50
2021/09/03 09:51:33;;;;;;;10.90;7.10;;;17.70;99.90;;;;;;5107312;27;20367;-50
2021/09/03 09:54:02;;;;;;;11.80;7.70;;;17.60;99.90;;;;;;5120821;27;20220;-50
2021/09/03 09:56:32;;;;;;;9.57;6.80;;;17.60;99.90;;;;;;5105947;27;20208;-46
2021/09/03 09:59:02;;;;;;;15.13;7.17;;;17.70;99.90;;;;;;5113580;27;20271;-47
2021/09/03 10:01:30;;;;;;;17.00;7.50;;;17.80;99.90;;;;;;5112166;27;20205;-48
2021/09/03 10:03:56;;;;;;;16.80;8.20;;;17.90;99.90;;;;;;5110879;27;20217;-46
2021/09/03 10:06:27;;;;;;;13.77;6.67;;;18.00;99.90;;;;;;5111356;27;20197;-50
2021/09/03 10:08:55;;;;;;;12.37;7.43;;;18.00;99.90;;;;;;5121523;27;20719;-50
2021/09/03 10:11:23;;;;;;;12.97;8.17;;;18.10;99.90;;;;;;5109925;27;20204;-50
2021/09/03 10:13:51;;;;;;;9.87;8.10;;;18.20;99.90;;;;;;5109107;27;20256;-51
2021/09/03 10:16:18;;;;;;;14.37;8.30;;;18.20;99.90;;;;;;5114389;27;20204;-47
2021/09/03 10:18:48;;;;;;;14.13;9.17;;;18.20;99.90;;;;;;5096729;27;20799;-47
2021/09/03 10:21:15;;;;;;;12.40;9.20;;;18.30;99.90;;;;;;5119784;27;20213;-52
2021/09/03 10:23:56;;;;;;;14.93;9.10;;;18.30;99.90;;;;;;5103685;27;20229;-50
2021/09/03 10:26:27;;;;;;;12.63;9.67;;;18.10;99.90;;;;;;5107948;27;20646;-49
2021/09/03 10:29:20;;;;;;;17.87;9.63;;;18.10;99.90;;;;;;5122254;27;20868;-49
2021/09/03 10:32:21;;;;;;;14.33;8.83;;;18.20;99.90;;;;;;5117345;27;20585;-51
2021/09/03 10:34:54;;;;;;;13.70;9.30;;;18.30;99.90;;;;;;5107931;27;20236;-49
2021/09/03 10:37:25;;;;;;;13.17;9.13;;;18.40;99.90;;;;;;5125343;27;20209;-49
2021/09/03 10:39:55;;;;;;;16.63;10.30;;;18.50;99.90;;;;;;5120475;27;20197;-48
2021/09/03 10:42:45;;;;;;;15.00;9.50;;;18.60;99.90;;;;;;5117298;27;20616;-51
2021/09/03 10:45:14;;;;;;;16.10;10.70;;;18.70;99.90;;;;;;5119969;27;20264;-50
2021/09/03 10:47:42;;;;;;;18.30;11.77;;;18.80;99.90;;;;;;5123752;27;20180;-49
2021/09/03 10:50:11;;;;;;;17.87;11.27;;;18.80;99.90;;;;;;5104305;27;20205;-51
2021/09/03 10:52:38;;;;;;;16.43;12.20;;;18.80;99.90;;;;;;5122632;27;20194;-47
2021/09/03 10:55:08;;;;;;;17.47;11.60;;;18.70;99.90;;;;;;5122720;27;20196;-48
2021/09/03 10:57:58;;;;;;;15.57;11.93;;;18.60;99.90;;;;;;5101694;27;21089;-48
2021/09/03 11:00:25;;;;;;;19.63;12.27;;;18.60;99.90;;;;;;5117948;27;20193;-49
2021/09/03 11:02:52;;;;;;;15.97;11.93;;;18.50;99.90;;;;;;5118209;27;20220;-48
2021/09/03 11:05:18;;;;;;;19.23;12.20;;;18.50;99.90;;;;;;5105633;27;20206;-51
2021/09/03 11:07:47;;;;;;;18.07;12.43;;;18.50;99.90;;;;;;5107468;27;20705;-49
2021/09/03 11:10:17;;;;;;;21.33;12.87;;;18.70;99.90;;;;;;5107629;27;20217;-51
2021/09/03 11:12:49;;;;;;;20.03;11.90;;;18.70;99.90;;;;;;5116684;27;20597;-48
2021/09/03 11:15:17;;;;;;;19.70;11.83;;;18.70;99.90;;;;;;5109698;27;20200;-48
2021/09/03 11:17:44;;;;;;;19.63;12.83;;;18.70;99.90;;;;;;5120519;27;20705;-49
2021/09/03 11:20:14;;;;;;;17.67;12.70;;;18.80;99.90;;;;;;5098095;27;20196;-46
2021/09/03 11:22:40;;;;;;;18.70;13.00;;;18.80;99.90;;;;;;5108599;27;20209;-46
2021/09/03 11:25:07;;;;;;;17.27;12.50;;;18.70;99.90;;;;;;5114242;27;20292;-49
2021/09/03 11:27:35;;;;;;;22.17;12.73;;;18.70;99.90;;;;;;5122191;27;20204;-46
2021/09/03 11:30:04;;;;;;;22.57;13.83;;;18.60;99.90;;;;;;5116412;27;20208;-53
2021/09/03 11:32:36;;;;;;;16.87;12.13;;;18.60;99.90;;;;;;5144475;27;20191;-48
2021/09/03 11:35:04;;;;;;;20.03;12.67;;;18.60;99.90;;;;;;5098755;27;20189;-53
2021/09/03 11:37:34;;;;;;;16.80;11.20;;;18.50;99.90;;;;;;5123044;27;20545;-46
2021/09/03 11:40:11;;;;;;;19.23;11.33;;;18.50;99.90;;;;;;5114478;27;20288;-51
2021/09/03 11:42:39;;;;;;;19.40;12.00;;;18.60;99.90;;;;;;5120712;27;20196;-47
2021/09/03 11:45:09;;;;;;;16.07;12.47;;;18.70;99.90;;;;;;5119058;27;20196;-46
2021/09/03 11:47:40;;;;;;;17.20;11.00;;;18.80;99.90;;;;;;5114700;27;20197;-47
2021/09/03 11:50:12;;;;;;;16.47;11.07;;;18.90;99.90;;;;;;5120403;27;20188;-47
2021/09/03 11:52:41;;;;;;;16.17;11.10;;;18.90;99.90;;;;;;5105021;27;20209;-52
2021/09/03 11:55:13;;;;;;;21.23;11.03;;;19.00;99.90;;;;;;5114489;27;20821;-46
2021/09/03 11:57:58;;;;;;;18.53;10.90;;;19.00;99.90;;;;;;5112854;27;20217;-52
2021/09/03 12:00:26;;;;;;;16.90;10.20;;;;;;;;;;5117654;27;20200;-46
2021/09/03 12:02:55;;;;;;;15.23;10.33;;;19.10;99.90;;;;;;5121338;27;20216;-51
2021/09/03 12:05:22;;;;;;;13.53;10.03;;;19.20;99.90;;;;;;5114195;27;20268;-47
2021/09/03 12:08:13;;;;;;;17.67;11.20;;;19.20;99.90;;;;;;5108813;27;20197;-48
2021/09/03 12:10:43;;;;;;;21.17;12.63;;;19.30;99.90;;;;;;5114470;27;20212;-49
2021/09/03 12:13:12;;;;;;;16.40;11.03;;;19.30;99.90;;;;;;5121079;28;20452;-46
2021/09/03 12:15:41;;;;;;;15.13;11.23;;;19.40;99.90;;;;;;5114922;27;20200;-49
2021/09/03 12:18:24;;;;;;;14.20;9.77;;;19.20;99.90;;;;;;5120063;27;20345;-49
2021/09/03 12:20:55;;;;;;;15.53;10.40;;;19.20;99.90;;;;;;5100955;27;20203;-49
2021/09/03 12:23:22;;;;;;;19.23;11.33;;;19.20;99.90;;;;;;5117124;27;20229;-50
2021/09/03 12:25:49;;;;;;;15.53;11.30;;;19.30;99.90;;;;;;5118157;28;20193;-46
2021/09/03 12:28:19;;;;;;;15.53;10.50;;;19.40;99.90;;;;;;5115717;28;20192;-47
2021/09/03 12:30:51;;;;;;;17.57;10.93;;;19.50;99.90;;;;;;5099639;27;20253;-47
2021/09/03 12:33:24;;;;;;;16.80;10.73;;;19.60;99.90;;;;;;5119058;27;20224;-50
2021/09/03 12:35:52;;;;;;;15.20;11.20;;;19.70;99.90;;;;;;5114645;27;20192;-51
2021/09/03 12:38:30;;;;;;;18.30;10.93;;;19.60;99.90;;;;;;5101925;27;20591;-46